sensor_id;sensor_type;location;lat;lon;timestamp;P1;durP1;ratioP1;P2;durP2;ratioP2
30020;SDS011;16861;52.294;7.760;2023-04-25T00:00:25;9.05;;;3.70;;
30020;SDS011;16861;52.294;7.760;2023-04-25T00:02:51;6.57;;;3.70;;
30020;SDS011;16861;52.294;7.760;2023-04-25T00:05:18;6.38;;;3.78;;
30020;SDS011;16861;52.294;7.760;2023-04-25T00:07:46;13.15;;;4.30;;
30020;SDS011;16861;52.294;7.760;2023-04-25T00:10:12;8.18;;;3.65;;
30020;SDS011;16861;52.294;7.760;2023-04-25T00:12:39;9.15;;;3.88;;
30020;SDS011;16861;52.294;7.760;2023-04-25T00:15:06;7.60;;;3.42;;
30020;SDS011;16861;52.294;7.760;2023-04-25T00:17:33;7.05;;;3.58;;
30020;SDS011;16861;52.294;7.760;2023-04-25T00:20:01;7.60;;;3.67;;
30020;SDS011;16861;52.294;7.760;2023-04-25T00:22:31;6.65;;;3.65;;
30020;SDS011;16861;52.294;7.760;2023-04-25T00:24:57;10.80;;;4.05;;
30020;SDS011;16861;52.294;7.760;2023-04-25T00:27:26;10.13;;;3.80;;
30020;SDS011;16861;52.294;7.760;2023-04-25T00:29:53;8.50;;;3.22;;
30020;SDS011;16861;52.294;7.760;2023-04-25T00:32:19;9.57;;;3.70;;
30020;SDS011;16861;52.294;7.760;2023-04-25T00:34:46;13.77;;;3.83;;
30020;SDS011;16861;52.294;7.760;2023-04-25T00:37:12;14.95;;;4.20;;
30020;SDS011;16861;52.294;7.760;2023-04-25T00:39:39;16.58;;;3.75;;
30020;SDS011;16861;52.294;7.760;2023-04-25T00:42:05;15.27;;;4.68;;
30020;SDS011;16861;52.294;7.760;2023-04-25T00:44:34;12.30;;;3.90;;
30020;SDS011;16861;52.294;7.760;2023-04-25T00:47:01;13.05;;;3.75;;
30020;SDS011;16861;52.294;7.760;2023-04-25T00:49:29;15.88;;;4.50;;
30020;SDS011;16861;52.294;7.760;2023-04-25T00:51:55;13.02;;;4.20;;
30020;SDS011;16861;52.294;7.760;2023-04-25T00:54:22;13.30;;;4.60;;
30020;SDS011;16861;52.294;7.760;2023-04-25T00:56:49;14.57;;;4.03;;
30020;SDS011;16861;52.294;7.760;2023-04-25T00:59:15;11.82;;;3.85;;
30020;SDS011;16861;52.294;7.760;2023-04-25T01:01:43;20.10;;;4.45;;
30020;SDS011;16861;52.294;7.760;2023-04-25T01:04:11;19.40;;;4.78;;
30020;SDS011;16861;52.294;7.760;2023-04-25T01:06:39;12.13;;;3.85;;
30020;SDS011;16861;52.294;7.760;2023-04-25T01:09:06;14.43;;;4.30;;
30020;SDS011;16861;52.294;7.760;2023-04-25T01:11:33;11.85;;;3.78;;
30020;SDS011;16861;52.294;7.760;2023-04-25T01:14:00;19.92;;;4.55;;
30020;SDS011;16861;52.294;7.760;2023-04-25T01:16:28;20.17;;;4.40;;
30020;SDS011;16861;52.294;7.760;2023-04-25T01:18:55;20.70;;;4.60;;
30020;SDS011;16861;52.294;7.760;2023-04-25T01:21:22;13.30;;;3.65;;
30020;SDS011;16861;52.294;7.760;2023-04-25T01:23:49;15.52;;;4.18;;
30020;SDS011;16861;52.294;7.760;2023-04-25T01:26:16;12.68;;;4.25;;
30020;SDS011;16861;52.294;7.760;2023-04-25T01:28:43;19.55;;;4.55;;
30020;SDS011;16861;52.294;7.760;2023-04-25T01:31:11;24.25;;;4.63;;
30020;SDS011;16861;52.294;7.760;2023-04-25T01:33:39;17.58;;;3.90;;
30020;SDS011;16861;52.294;7.760;2023-04-25T01:36:05;19.90;;;4.40;;
30020;SDS011;16861;52.294;7.760;2023-04-25T01:38:32;18.17;;;3.88;;
30020;SDS011;16861;52.294;7.760;2023-04-25T01:40:59;10.40;;;3.75;;
30020;SDS011;16861;52.294;7.760;2023-04-25T01:43:25;25.17;;;4.50;;
30020;SDS011;16861;52.294;7.760;2023-04-25T01:45:52;19.02;;;4.10;;
30020;SDS011;16861;52.294;7.760;2023-04-25T01:48:19;23.52;;;4.18;;
30020;SDS011;16861;52.294;7.760;2023-04-25T01:50:46;13.25;;;4.45;;
30020;SDS011;16861;52.294;7.760;2023-04-25T01:53:13;13.73;;;3.25;;
30020;SDS011;16861;52.294;7.760;2023-04-25T01:55:40;16.58;;;4.03;;
30020;SDS011;16861;52.294;7.760;2023-04-25T01:58:07;14.45;;;4.03;;
30020;SDS011;16861;52.294;7.760;2023-04-25T02:00:36;12.43;;;3.50;;
30020;SDS011;16861;52.294;7.760;2023-04-25T02:03:05;14.38;;;4.35;;
30020;SDS011;16861;52.294;7.760;2023-04-25T02:05:38;12.00;;;3.72;;
30020;SDS011;16861;52.294;7.760;2023-04-25T02:08:06;12.30;;;3.55;;
30020;SDS011;16861;52.294;7.760;2023-04-25T02:10:33;19.08;;;4.35;;
30020;SDS011;16861;52.294;7.760;2023-04-25T02:13:00;13.43;;;3.53;;
30020;SDS011;16861;52.294;7.760;2023-04-25T02:15:27;15.40;;;3.30;;
30020;SDS011;16861;52.294;7.760;2023-04-25T02:17:53;16.80;;;4.13;;
30020;SDS011;16861;52.294;7.760;2023-04-25T02:20:21;14.88;;;4.00;;
30020;SDS011;16861;52.294;7.760;2023-04-25T02:22:49;13.52;;;3.50;;
30020;SDS011;16861;52.294;7.760;2023-04-25T02:25:16;11.90;;;3.20;;
30020;SDS011;16861;52.294;7.760;2023-04-25T02:27:43;13.32;;;3.50;;
30020;SDS011;16861;52.294;7.760;2023-04-25T02:30:10;15.57;;;3.83;;
30020;SDS011;16861;52.294;7.760;2023-04-25T02:32:38;16.23;;;4.30;;
30020;SDS011;16861;52.294;7.760;2023-04-25T02:35:05;18.83;;;3.88;;
30020;SDS011;16861;52.294;7.760;2023-04-25T02:37:33;21.10;;;4.72;;
30020;SDS011;16861;52.294;7.760;2023-04-25T02:40:01;13.82;;;4.13;;
30020;SDS011;16861;52.294;7.760;2023-04-25T02:42:29;16.85;;;4.05;;
30020;SDS011;16861;52.294;7.760;2023-04-25T02:44:56;13.05;;;3.80;;
30020;SDS011;16861;52.294;7.760;2023-04-25T02:47:23;18.13;;;3.53;;
30020;SDS011;16861;52.294;7.760;2023-04-25T02:49:49;14.13;;;3.95;;
30020;SDS011;16861;52.294;7.760;2023-04-25T02:52:16;17.42;;;4.35;;
30020;SDS011;16861;52.294;7.760;2023-04-25T02:54:43;15.95;;;3.90;;
30020;SDS011;16861;52.294;7.760;2023-04-25T02:57:09;13.32;;;4.00;;
30020;SDS011;16861;52.294;7.760;2023-04-25T02:59:36;17.98;;;3.95;;
30020;SDS011;16861;52.294;7.760;2023-04-25T03:02:02;15.20;;;4.57;;
30020;SDS011;16861;52.294;7.760;2023-04-25T03:04:29;16.90;;;4.18;;
30020;SDS011;16861;52.294;7.760;2023-04-25T03:06:55;12.90;;;4.22;;
30020;SDS011;16861;52.294;7.760;2023-04-25T03:09:22;17.13;;;4.45;;
30020;SDS011;16861;52.294;7.760;2023-04-25T03:11:49;17.95;;;4.85;;
30020;SDS011;16861;52.294;7.760;2023-04-25T03:14:16;13.52;;;4.00;;
30020;SDS011;16861;52.294;7.760;2023-04-25T03:16:42;17.23;;;4.47;;
30020;SDS011;16861;52.294;7.760;2023-04-25T03:19:09;18.10;;;4.72;;
30020;SDS011;16861;52.294;7.760;2023-04-25T03:21:35;17.30;;;5.03;;
30020;SDS011;16861;52.294;7.760;2023-04-25T03:24:03;20.05;;;4.30;;
30020;SDS011;16861;52.294;7.760;2023-04-25T03:26:30;22.30;;;4.60;;
30020;SDS011;16861;52.294;7.760;2023-04-25T03:28:57;14.48;;;4.03;;
30020;SDS011;16861;52.294;7.760;2023-04-25T03:31:24;17.75;;;4.65;;
30020;SDS011;16861;52.294;7.760;2023-04-25T03:33:51;14.57;;;4.43;;
30020;SDS011;16861;52.294;7.760;2023-04-25T13:26:36;6.40;;;1.92;;
30020;SDS011;16861;52.294;7.760;2023-04-25T13:29:02;4.65;;;1.35;;
30020;SDS011;16861;52.294;7.760;2023-04-25T13:31:30;5.82;;;1.33;;
30020;SDS011;16861;52.294;7.760;2023-04-25T13:33:57;7.93;;;1.48;;
30020;SDS011;16861;52.294;7.760;2023-04-25T13:39:16;5.40;;;1.30;;
30020;SDS011;16861;52.294;7.760;2023-04-25T13:41:42;3.53;;;1.15;;
30020;SDS011;16861;52.294;7.760;2023-04-25T13:44:09;3.40;;;1.20;;
30020;SDS011;16861;52.294;7.760;2023-04-25T13:46:36;4.00;;;1.42;;
30020;SDS011;16861;52.294;7.760;2023-04-25T13:49:12;3.20;;;1.20;;
30020;SDS011;16861;52.294;7.760;2023-04-25T13:51:39;3.53;;;1.00;;
30020;SDS011;16861;52.294;7.760;2023-04-25T13:54:06;4.10;;;1.40;;
30020;SDS011;16861;52.294;7.760;2023-04-25T13:56:33;3.72;;;1.10;;
30020;SDS011;16861;52.294;7.760;2023-04-25T13:59:00;6.88;;;1.20;;
30020;SDS011;16861;52.294;7.760;2023-04-25T14:01:27;2.53;;;1.13;;
30020;SDS011;16861;52.294;7.760;2023-04-25T14:03:54;4.40;;;1.10;;
30020;SDS011;16861;52.294;7.760;2023-04-25T14:06:21;2.63;;;1.20;;
30020;SDS011;16861;52.294;7.760;2023-04-25T14:08:50;2.72;;;1.02;;
30020;SDS011;16861;52.294;7.760;2023-04-25T14:11:17;1.48;;;0.70;;
30020;SDS011;16861;52.294;7.760;2023-04-25T14:13:54;3.10;;;0.93;;
30020;SDS011;16861;52.294;7.760;2023-04-25T14:16:21;2.20;;;0.95;;
30020;SDS011;16861;52.294;7.760;2023-04-25T14:18:49;3.30;;;1.05;;
30020;SDS011;16861;52.294;7.760;2023-04-25T14:21:15;2.97;;;1.20;;
30020;SDS011;16861;52.294;7.760;2023-04-25T14:23:42;5.45;;;1.50;;
30020;SDS011;16861;52.294;7.760;2023-04-25T14:26:08;4.53;;;1.45;;
30020;SDS011;16861;52.294;7.760;2023-04-25T14:28:38;5.03;;;1.33;;
30020;SDS011;16861;52.294;7.760;2023-04-25T14:31:05;3.78;;;1.23;;
30020;SDS011;16861;52.294;7.760;2023-04-25T14:33:32;4.85;;;1.50;;
30020;SDS011;16861;52.294;7.760;2023-04-25T14:35:58;4.32;;;1.38;;
30020;SDS011;16861;52.294;7.760;2023-04-25T14:38:25;3.60;;;0.90;;
30020;SDS011;16861;52.294;7.760;2023-04-25T14:40:52;4.25;;;1.50;;
30020;SDS011;16861;52.294;7.760;2023-04-25T14:43:20;5.57;;;1.65;;
30020;SDS011;16861;52.294;7.760;2023-04-25T14:45:46;3.45;;;1.30;;
30020;SDS011;16861;52.294;7.760;2023-04-25T14:48:13;4.55;;;1.50;;
30020;SDS011;16861;52.294;7.760;2023-04-25T14:50:39;4.25;;;1.35;;
30020;SDS011;16861;52.294;7.760;2023-04-25T14:53:06;4.72;;;1.33;;
30020;SDS011;16861;52.294;7.760;2023-04-25T14:55:33;4.35;;;1.23;;
30020;SDS011;16861;52.294;7.760;2023-04-25T14:57:59;4.88;;;1.30;;
30020;SDS011;16861;52.294;7.760;2023-04-25T15:00:27;3.97;;;1.60;;
30020;SDS011;16861;52.294;7.760;2023-04-25T15:02:53;4.10;;;1.40;;
30020;SDS011;16861;52.294;7.760;2023-04-25T15:05:20;4.20;;;1.35;;
30020;SDS011;16861;52.294;7.760;2023-04-25T15:07:47;3.95;;;1.40;;
30020;SDS011;16861;52.294;7.760;2023-04-25T15:10:14;3.33;;;1.30;;
30020;SDS011;16861;52.294;7.760;2023-04-25T15:12:42;4.95;;;1.50;;
30020;SDS011;16861;52.294;7.760;2023-04-25T15:15:12;2.38;;;1.17;;
30020;SDS011;16861;52.294;7.760;2023-04-25T15:17:50;2.47;;;0.95;;
30020;SDS011;16861;52.294;7.760;2023-04-25T15:20:17;3.85;;;1.40;;
30020;SDS011;16861;52.294;7.760;2023-04-25T15:22:43;6.22;;;1.55;;
30020;SDS011;16861;52.294;7.760;2023-04-25T15:25:15;2.92;;;1.20;;
30020;SDS011;16861;52.294;7.760;2023-04-25T15:27:45;4.93;;;1.35;;
30020;SDS011;16861;52.294;7.760;2023-04-25T15:30:15;5.22;;;1.27;;
30020;SDS011;16861;52.294;7.760;2023-04-25T15:32:43;3.60;;;1.20;;
30020;SDS011;16861;52.294;7.760;2023-04-25T15:35:10;4.65;;;1.00;;
30020;SDS011;16861;52.294;7.760;2023-04-25T15:37:37;4.03;;;1.20;;
30020;SDS011;16861;52.294;7.760;2023-04-25T15:40:05;4.35;;;1.20;;
30020;SDS011;16861;52.294;7.760;2023-04-25T15:45:29;5.50;;;1.50;;
30020;SDS011;16861;52.294;7.760;2023-04-25T15:47:57;3.88;;;1.23;;
30020;SDS011;16861;52.294;7.760;2023-04-25T15:50:24;4.93;;;1.55;;
30020;SDS011;16861;52.294;7.760;2023-04-25T15:52:51;5.13;;;1.20;;
30020;SDS011;16861;52.294;7.760;2023-04-25T15:55:18;6.78;;;1.33;;
30020;SDS011;16861;52.294;7.760;2023-04-25T15:57:47;5.68;;;1.40;;
30020;SDS011;16861;52.294;7.760;2023-04-25T16:00:14;3.17;;;1.02;;
30020;SDS011;16861;52.294;7.760;2023-04-25T16:02:43;2.85;;;1.10;;
30020;SDS011;16861;52.294;7.760;2023-04-25T16:05:10;5.40;;;1.10;;
30020;SDS011;16861;52.294;7.760;2023-04-25T16:07:40;4.57;;;1.55;;
30020;SDS011;16861;52.294;7.760;2023-04-25T16:10:08;6.95;;;1.45;;
30020;SDS011;16861;52.294;7.760;2023-04-25T16:12:36;8.02;;;1.30;;
30020;SDS011;16861;52.294;7.760;2023-04-25T16:15:06;3.38;;;1.25;;
30020;SDS011;16861;52.294;7.760;2023-04-25T16:17:33;3.00;;;1.30;;
30020;SDS011;16861;52.294;7.760;2023-04-25T16:20:00;3.10;;;1.00;;
30020;SDS011;16861;52.294;7.760;2023-04-25T16:22:29;5.05;;;0.90;;
30020;SDS011;16861;52.294;7.760;2023-04-25T16:24:56;3.17;;;1.13;;
30020;SDS011;16861;52.294;7.760;2023-04-25T16:27:23;3.25;;;1.20;;
30020;SDS011;16861;52.294;7.760;2023-04-25T16:29:49;3.47;;;1.02;;
30020;SDS011;16861;52.294;7.760;2023-04-25T16:32:22;3.92;;;1.13;;
30020;SDS011;16861;52.294;7.760;2023-04-25T16:34:49;3.65;;;1.20;;
30020;SDS011;16861;52.294;7.760;2023-04-25T16:37:15;4.03;;;1.40;;
30020;SDS011;16861;52.294;7.760;2023-04-25T16:39:42;5.68;;;1.30;;
30020;SDS011;16861;52.294;7.760;2023-04-25T16:42:08;6.53;;;1.25;;
30020;SDS011;16861;52.294;7.760;2023-04-25T16:44:35;6.82;;;1.33;;
30020;SDS011;16861;52.294;7.760;2023-04-25T16:47:02;7.07;;;1.45;;
30020;SDS011;16861;52.294;7.760;2023-04-25T16:49:30;4.13;;;1.15;;
30020;SDS011;16861;52.294;7.760;2023-04-25T16:51:57;7.32;;;1.30;;
30020;SDS011;16861;52.294;7.760;2023-04-25T16:54:24;4.93;;;1.38;;
30020;SDS011;16861;52.294;7.760;2023-04-25T16:56:51;7.78;;;1.70;;
30020;SDS011;16861;52.294;7.760;2023-04-25T16:59:18;4.82;;;1.40;;
30020;SDS011;16861;52.294;7.760;2023-04-25T17:01:45;3.70;;;1.23;;
30020;SDS011;16861;52.294;7.760;2023-04-25T17:04:11;4.20;;;1.30;;
30020;SDS011;16861;52.294;7.760;2023-04-25T17:06:38;3.03;;;1.10;;
30020;SDS011;16861;52.294;7.760;2023-04-25T17:09:04;2.30;;;1.02;;
30020;SDS011;16861;52.294;7.760;2023-04-25T17:11:31;2.78;;;0.93;;
30020;SDS011;16861;52.294;7.760;2023-04-25T17:13:58;1.42;;;0.73;;
30020;SDS011;16861;52.294;7.760;2023-04-25T17:16:32;3.40;;;1.20;;
30020;SDS011;16861;52.294;7.760;2023-04-25T17:19:06;7.25;;;1.30;;
30020;SDS011;16861;52.294;7.760;2023-04-25T17:21:32;3.25;;;0.90;;
30020;SDS011;16861;52.294;7.760;2023-04-25T17:23:59;3.13;;;1.40;;
30020;SDS011;16861;52.294;7.760;2023-04-25T17:26:26;2.45;;;0.80;;
30020;SDS011;16861;52.294;7.760;2023-04-25T17:28:52;4.30;;;1.38;;
30020;SDS011;16861;52.294;7.760;2023-04-25T17:31:20;7.97;;;1.70;;
30020;SDS011;16861;52.294;7.760;2023-04-25T17:33:48;4.28;;;1.38;;
30020;SDS011;16861;52.294;7.760;2023-04-25T17:36:15;5.18;;;1.35;;
30020;SDS011;16861;52.294;7.760;2023-04-25T17:38:42;3.05;;;1.20;;
30020;SDS011;16861;52.294;7.760;2023-04-25T17:41:09;4.18;;;1.48;;
30020;SDS011;16861;52.294;7.760;2023-04-25T17:43:35;4.68;;;1.45;;
30020;SDS011;16861;52.294;7.760;2023-04-25T17:46:02;8.45;;;1.60;;
30020;SDS011;16861;52.294;7.760;2023-04-25T17:48:29;5.82;;;1.42;;
30020;SDS011;16861;52.294;7.760;2023-04-25T17:50:57;5.20;;;1.20;;
30020;SDS011;16861;52.294;7.760;2023-04-25T17:53:23;3.58;;;1.50;;
30020;SDS011;16861;52.294;7.760;2023-04-25T17:55:50;3.72;;;1.30;;
30020;SDS011;16861;52.294;7.760;2023-04-25T17:58:17;5.55;;;1.45;;
30020;SDS011;16861;52.294;7.760;2023-04-25T18:00:43;6.07;;;1.63;;
30020;SDS011;16861;52.294;7.760;2023-04-25T18:03:10;5.82;;;1.85;;
30020;SDS011;16861;52.294;7.760;2023-04-25T18:05:37;8.30;;;1.42;;
30020;SDS011;16861;52.294;7.760;2023-04-25T18:08:04;5.97;;;1.60;;
30020;SDS011;16861;52.294;7.760;2023-04-25T18:10:31;4.35;;;1.33;;
30020;SDS011;16861;52.294;7.760;2023-04-25T18:12:59;5.78;;;1.50;;
30020;SDS011;16861;52.294;7.760;2023-04-25T18:15:26;4.68;;;1.30;;
30020;SDS011;16861;52.294;7.760;2023-04-25T18:17:53;4.47;;;1.33;;
30020;SDS011;16861;52.294;7.760;2023-04-25T18:20:22;6.47;;;1.50;;
30020;SDS011;16861;52.294;7.760;2023-04-25T18:22:49;4.57;;;1.25;;
30020;SDS011;16861;52.294;7.760;2023-04-25T18:25:16;6.03;;;1.70;;
30020;SDS011;16861;52.294;7.760;2023-04-25T18:27:43;7.70;;;1.80;;
30020;SDS011;16861;52.294;7.760;2023-04-25T18:30:11;6.70;;;1.77;;
30020;SDS011;16861;52.294;7.760;2023-04-25T18:32:38;5.90;;;1.55;;
30020;SDS011;16861;52.294;7.760;2023-04-25T18:35:05;4.82;;;1.33;;
30020;SDS011;16861;52.294;7.760;2023-04-25T18:37:32;4.03;;;1.45;;
30020;SDS011;16861;52.294;7.760;2023-04-25T18:39:58;7.47;;;1.40;;
30020;SDS011;16861;52.294;7.760;2023-04-25T18:42:31;4.82;;;1.38;;
30020;SDS011;16861;52.294;7.760;2023-04-25T18:44:58;6.03;;;1.60;;
30020;SDS011;16861;52.294;7.760;2023-04-25T18:47:25;7.90;;;1.80;;
30020;SDS011;16861;52.294;7.760;2023-04-25T18:49:51;4.85;;;1.80;;
30020;SDS011;16861;52.294;7.760;2023-04-25T18:52:18;5.78;;;1.40;;
30020;SDS011;16861;52.294;7.760;2023-04-25T18:54:44;6.38;;;2.20;;
30020;SDS011;16861;52.294;7.760;2023-04-25T18:57:11;5.03;;;1.60;;
30020;SDS011;16861;52.294;7.760;2023-04-25T18:59:41;4.10;;;1.30;;
30020;SDS011;16861;52.294;7.760;2023-04-25T19:02:09;5.20;;;1.58;;
30020;SDS011;16861;52.294;7.760;2023-04-25T19:04:36;4.28;;;1.70;;
30020;SDS011;16861;52.294;7.760;2023-04-25T19:07:03;4.22;;;1.42;;
30020;SDS011;16861;52.294;7.760;2023-04-25T19:09:30;5.65;;;1.30;;
30020;SDS011;16861;52.294;7.760;2023-04-25T19:11:57;3.30;;;1.42;;
30020;SDS011;16861;52.294;7.760;2023-04-25T19:14:23;5.50;;;1.67;;
30020;SDS011;16861;52.294;7.760;2023-04-25T19:16:51;7.10;;;1.75;;
30020;SDS011;16861;52.294;7.760;2023-04-25T19:19:18;6.75;;;1.60;;
30020;SDS011;16861;52.294;7.760;2023-04-25T19:21:44;7.30;;;1.63;;
30020;SDS011;16861;52.294;7.760;2023-04-25T19:24:11;3.97;;;1.40;;
30020;SDS011;16861;52.294;7.760;2023-04-25T19:26:37;3.90;;;1.70;;
30020;SDS011;16861;52.294;7.760;2023-04-25T19:29:08;4.55;;;1.60;;
30020;SDS011;16861;52.294;7.760;2023-04-25T19:31:38;5.85;;;1.67;;
30020;SDS011;16861;52.294;7.760;2023-04-25T19:34:05;7.32;;;1.65;;
30020;SDS011;16861;52.294;7.760;2023-04-25T19:36:32;7.03;;;1.90;;
30020;SDS011;16861;52.294;7.760;2023-04-25T19:41:29;5.90;;;1.33;;
30020;SDS011;16861;52.294;7.760;2023-04-25T19:43:57;6.78;;;1.60;;
30020;SDS011;16861;52.294;7.760;2023-04-25T19:46:27;5.15;;;1.80;;
30020;SDS011;16861;52.294;7.760;2023-04-25T19:48:54;6.75;;;1.35;;
30020;SDS011;16861;52.294;7.760;2023-04-25T19:51:20;5.78;;;2.08;;
30020;SDS011;16861;52.294;7.760;2023-04-25T19:53:47;11.15;;;2.13;;
30020;SDS011;16861;52.294;7.760;2023-04-25T19:56:14;5.22;;;1.35;;
30020;SDS011;16861;52.294;7.760;2023-04-25T19:58:40;6.55;;;1.50;;
30020;SDS011;16861;52.294;7.760;2023-04-25T20:01:07;5.32;;;1.50;;
30020;SDS011;16861;52.294;7.760;2023-04-25T20:03:35;4.43;;;1.55;;
30020;SDS011;16861;52.294;7.760;2023-04-25T20:06:02;8.65;;;1.73;;
30020;SDS011;16861;52.294;7.760;2023-04-25T20:08:29;4.10;;;1.60;;
30020;SDS011;16861;52.294;7.760;2023-04-25T20:10:55;5.80;;;1.50;;
30020;SDS011;16861;52.294;7.760;2023-04-25T20:13:22;10.68;;;1.80;;
30020;SDS011;16861;52.294;7.760;2023-04-25T20:15:48;7.03;;;1.38;;
30020;SDS011;16861;52.294;7.760;2023-04-25T20:18:15;7.28;;;2.30;;
30020;SDS011;16861;52.294;7.760;2023-04-25T20:20:42;5.15;;;1.35;;
30020;SDS011;16861;52.294;7.760;2023-04-25T20:23:08;6.75;;;2.05;;
30020;SDS011;16861;52.294;7.760;2023-04-25T20:25:35;5.55;;;1.38;;
30020;SDS011;16861;52.294;7.760;2023-04-25T20:28:01;6.70;;;1.70;;
30020;SDS011;16861;52.294;7.760;2023-04-25T20:30:28;7.07;;;1.60;;
30020;SDS011;16861;52.294;7.760;2023-04-25T20:32:54;6.38;;;1.50;;
30020;SDS011;16861;52.294;7.760;2023-04-25T20:35:21;6.03;;;1.80;;
30020;SDS011;16861;52.294;7.760;2023-04-25T20:37:48;5.80;;;1.48;;
30020;SDS011;16861;52.294;7.760;2023-04-25T20:40:16;6.28;;;1.63;;
30020;SDS011;16861;52.294;7.760;2023-04-25T20:42:42;7.78;;;1.63;;
30020;SDS011;16861;52.294;7.760;2023-04-25T20:45:09;6.13;;;1.40;;
30020;SDS011;16861;52.294;7.760;2023-04-25T20:47:39;3.72;;;1.88;;
30020;SDS011;16861;52.294;7.760;2023-04-25T20:50:06;2.88;;;1.52;;
30020;SDS011;16861;52.294;7.760;2023-04-25T20:52:33;7.50;;;2.03;;
30020;SDS011;16861;52.294;7.760;2023-04-25T20:55:02;5.75;;;1.88;;
30020;SDS011;16861;52.294;7.760;2023-04-25T20:57:30;6.93;;;1.60;;
30020;SDS011;16861;52.294;7.760;2023-04-25T20:59:57;5.55;;;1.50;;
30020;SDS011;16861;52.294;7.760;2023-04-25T21:02:24;6.40;;;1.83;;
30020;SDS011;16861;52.294;7.760;2023-04-25T21:04:50;6.03;;;1.40;;
30020;SDS011;16861;52.294;7.760;2023-04-25T21:07:17;6.10;;;1.55;;
30020;SDS011;16861;52.294;7.760;2023-04-25T21:09:44;5.95;;;1.50;;
30020;SDS011;16861;52.294;7.760;2023-04-25T21:12:10;6.38;;;1.90;;
30020;SDS011;16861;52.294;7.760;2023-04-25T21:14:37;4.78;;;1.88;;
30020;SDS011;16861;52.294;7.760;2023-04-25T21:17:04;7.35;;;1.73;;
30020;SDS011;16861;52.294;7.760;2023-04-25T21:19:30;4.18;;;1.20;;
30020;SDS011;16861;52.294;7.760;2023-04-25T21:21:58;10.73;;;1.48;;
30020;SDS011;16861;52.294;7.760;2023-04-25T21:24:24;5.30;;;1.90;;
30020;SDS011;16861;52.294;7.760;2023-04-25T21:26:52;5.07;;;1.63;;
30020;SDS011;16861;52.294;7.760;2023-04-25T21:29:19;6.25;;;1.65;;
30020;SDS011;16861;52.294;7.760;2023-04-25T21:31:45;7.85;;;2.20;;
30020;SDS011;16861;52.294;7.760;2023-04-25T21:34:12;7.95;;;1.60;;
30020;SDS011;16861;52.294;7.760;2023-04-25T21:36:38;10.63;;;1.63;;
30020;SDS011;16861;52.294;7.760;2023-04-25T21:39:06;6.28;;;1.55;;
30020;SDS011;16861;52.294;7.760;2023-04-25T21:41:33;8.63;;;1.52;;
30020;SDS011;16861;52.294;7.760;2023-04-25T21:43:59;6.15;;;1.33;;
30020;SDS011;16861;52.294;7.760;2023-04-25T21:46:26;6.50;;;1.60;;
30020;SDS011;16861;52.294;7.760;2023-04-25T21:48:53;4.78;;;1.30;;
30020;SDS011;16861;52.294;7.760;2023-04-25T21:51:20;7.72;;;1.98;;
30020;SDS011;16861;52.294;7.760;2023-04-25T21:53:47;6.63;;;1.50;;
30020;SDS011;16861;52.294;7.760;2023-04-25T21:56:13;8.85;;;1.63;;
30020;SDS011;16861;52.294;7.760;2023-04-25T21:58:40;6.80;;;2.10;;
30020;SDS011;16861;52.294;7.760;2023-04-25T22:01:06;8.35;;;1.38;;
30020;SDS011;16861;52.294;7.760;2023-04-25T22:03:33;11.55;;;1.85;;
30020;SDS011;16861;52.294;7.760;2023-04-25T22:06:00;4.60;;;1.23;;
30020;SDS011;16861;52.294;7.760;2023-04-25T22:08:29;5.97;;;1.60;;
30020;SDS011;16861;52.294;7.760;2023-04-25T22:10:55;7.00;;;1.98;;
30020;SDS011;16861;52.294;7.760;2023-04-25T22:13:22;6.78;;;1.77;;
30020;SDS011;16861;52.294;7.760;2023-04-25T22:15:49;4.38;;;1.30;;
30020;SDS011;16861;52.294;7.760;2023-04-25T22:18:15;5.07;;;1.48;;
30020;SDS011;16861;52.294;7.760;2023-04-25T22:20:43;12.02;;;1.77;;
30020;SDS011;16861;52.294;7.760;2023-04-25T22:23:10;5.97;;;1.70;;
30020;SDS011;16861;52.294;7.760;2023-04-25T22:25:37;8.02;;;1.77;;
30020;SDS011;16861;52.294;7.760;2023-04-25T22:28:04;6.18;;;1.92;;
30020;SDS011;16861;52.294;7.760;2023-04-25T22:30:30;7.75;;;2.17;;
30020;SDS011;16861;52.294;7.760;2023-04-25T22:32:57;4.10;;;1.70;;
30020;SDS011;16861;52.294;7.760;2023-04-25T22:35:24;8.65;;;2.00;;
30020;SDS011;16861;52.294;7.760;2023-04-25T22:37:51;10.38;;;2.25;;
30020;SDS011;16861;52.294;7.760;2023-04-25T22:40:18;6.53;;;1.70;;
30020;SDS011;16861;52.294;7.760;2023-04-25T22:42:45;8.02;;;1.80;;
30020;SDS011;16861;52.294;7.760;2023-04-25T22:45:12;5.32;;;2.00;;
30020;SDS011;16861;52.294;7.760;2023-04-25T22:47:38;8.77;;;2.03;;
30020;SDS011;16861;52.294;7.760;2023-04-25T22:50:06;9.15;;;1.92;;
30020;SDS011;16861;52.294;7.760;2023-04-25T22:52:38;10.67;;;2.20;;
30020;SDS011;16861;52.294;7.760;2023-04-25T22:55:05;7.32;;;1.98;;
30020;SDS011;16861;52.294;7.760;2023-04-25T22:57:35;5.50;;;1.70;;
30020;SDS011;16861;52.294;7.760;2023-04-25T23:00:06;6.47;;;1.77;;
30020;SDS011;16861;52.294;7.760;2023-04-25T23:02:42;4.03;;;1.58;;
30020;SDS011;16861;52.294;7.760;2023-04-25T23:05:11;9.65;;;1.83;;
30020;SDS011;16861;52.294;7.760;2023-04-25T23:07:38;7.20;;;1.60;;
30020;SDS011;16861;52.294;7.760;2023-04-25T23:10:10;6.22;;;1.70;;
30020;SDS011;16861;52.294;7.760;2023-04-25T23:12:37;11.48;;;2.35;;
30020;SDS011;16861;52.294;7.760;2023-04-25T23:15:05;6.35;;;2.05;;
30020;SDS011;16861;52.294;7.760;2023-04-25T23:17:33;6.72;;;2.28;;
30020;SDS011;16861;52.294;7.760;2023-04-25T23:20:00;11.85;;;2.30;;
30020;SDS011;16861;52.294;7.760;2023-04-25T23:22:27;5.97;;;1.75;;
30020;SDS011;16861;52.294;7.760;2023-04-25T23:24:54;9.52;;;2.28;;
30020;SDS011;16861;52.294;7.760;2023-04-25T23:27:21;10.20;;;2.38;;
30020;SDS011;16861;52.294;7.760;2023-04-25T23:29:50;10.30;;;2.67;;
30020;SDS011;16861;52.294;7.760;2023-04-25T23:32:21;9.27;;;2.67;;
30020;SDS011;16861;52.294;7.760;2023-04-25T23:34:48;5.93;;;1.88;;
30020;SDS011;16861;52.294;7.760;2023-04-25T23:37:15;7.95;;;2.28;;
30020;SDS011;16861;52.294;7.760;2023-04-25T23:39:48;6.85;;;2.45;;
30020;SDS011;16861;52.294;7.760;2023-04-25T23:42:17;6.35;;;2.17;;
30020;SDS011;16861;52.294;7.760;2023-04-25T23:44:44;5.72;;;2.33;;
30020;SDS011;16861;52.294;7.760;2023-04-25T23:47:10;6.32;;;2.30;;
30020;SDS011;16861;52.294;7.760;2023-04-25T23:49:39;6.00;;;2.55;;
30020;SDS011;16861;52.294;7.760;2023-04-25T23:52:06;6.82;;;2.80;;
30020;SDS011;16861;52.294;7.760;2023-04-25T23:54:33;5.32;;;1.98;;
30020;SDS011;16861;52.294;7.760;2023-04-25T23:56:59;6.63;;;2.00;;
30020;SDS011;16861;52.294;7.760;2023-04-25T23:59:26;4.50;;;2.10;;
